Time;durP1;ratioP1;P1;durP2;ratioP2;P2;SDS_P1;SDS_P2;PMS_P1;PMS_P2;Temp;Humidity;BMP_temperature;BMP_pressure;BME280_temperature;BME280_humidity;BME280_pressure;Samples;Min_cycle;Max_cycle;Signal;HPM_P1;HPM_P2
2024/04/18 00:00:50;;;;;;;42.30;29.00;;;;;;;;;;5379025;26;20005;-69
2024/04/18 00:03:16;;;;;;;43.72;27.10;;;;;;;;;;5374710;26;19997;-70
2024/04/18 00:05:42;;;;;;;42.60;26.95;;;;;;;;;;5369124;26;20010;-68
2024/04/18 00:08:08;;;;;;;40.38;27.88;;;;;;;;;;5379097;26;20011;-71
2024/04/18 00:10:34;;;;;;;36.35;26.33;;;;;;;;;;5379368;26;20011;-72
2024/04/18 00:13:00;;;;;;;41.08;25.73;;;;;;;;;;5378855;26;20008;-70
2024/04/18 00:15:26;;;;;;;36.75;25.92;;;;;;;;;;5379050;26;19996;-71
2024/04/18 00:17:53;;;;;;;37.83;24.85;;;;;;;;;;5378811;26;19996;-67
2024/04/18 00:20:19;;;;;;;37.53;25.90;;;;;;;;;;5378780;26;20018;-68
2024/04/18 00:22:45;;;;;;;35.00;24.13;;;;;;;;;;5378871;26;20455;-67
2024/04/18 00:25:11;;;;;;;34.95;23.85;;;;;;;;;;5368041;26;20004;-68
2024/04/18 00:27:37;;;;;;;34.95;22.92;;;;;;;;;;5378560;26;20426;-68
2024/04/18 00:30:03;;;;;;;31.65;22.40;;;;;;;;;;5378555;26;20036;-67
2024/04/18 00:32:29;;;;;;;33.22;22.70;;;;;;;;;;5378207;26;20470;-68
2024/04/18 00:34:55;;;;;;;29.67;21.33;;;;;;;;;;5378521;26;20412;-68
2024/04/18 00:37:21;;;;;;;36.13;22.35;;;;;;;;;;5378327;26;20051;-68
2024/04/18 00:39:47;;;;;;;29.48;21.50;;;;;;;;;;5378586;26;19996;-68
2024/04/18 00:42:13;;;;;;;30.00;20.83;;;;;;;;;;5378896;26;20081;-68
2024/04/18 00:44:39;;;;;;;28.63;21.02;;;;;;;;;;5372912;26;20016;-68
2024/04/18 00:47:06;;;;;;;30.83;21.13;;;;;;;;;;5381412;26;20032;-68
2024/04/18 00:49:32;;;;;;;29.30;21.70;;;;;;;;;;5381907;26;20019;-68
2024/04/18 00:51:58;;;;;;;30.20;20.70;;;;;;;;;;5379633;26;20012;-66
2024/04/18 00:54:24;;;;;;;29.92;21.05;;;;;;;;;;5381889;26;20011;-70
2024/04/18 00:56:50;;;;;;;25.05;18.23;;;;;;;;;;5381649;26;20008;-68
2024/04/18 00:59:16;;;;;;;27.58;19.20;;;;;;;;;;5381493;26;20566;-68
2024/04/18 01:01:43;;;;;;;27.45;19.48;;;;;;;;;;5381552;26;20016;-68
2024/04/18 01:04:10;;;;;;;27.77;19.55;;;;;;;;;;5381402;26;20073;-68
2024/04/18 01:06:36;;;;;;;25.98;18.92;;;;;;;;;;5381594;26;20479;-69
2024/04/18 01:09:03;;;;;;;28.52;18.27;;;;;;;;;;5381462;26;20000;-69
2024/04/18 01:11:29;;;;;;;26.10;17.88;;;;;;;;;;5381224;26;20007;-67
2024/04/18 01:13:55;;;;;;;26.10;17.48;;;;;;;;;;5381420;26;20000;-69
2024/04/18 01:16:22;;;;;;;24.48;16.75;;;;;;;;;;5381834;26;20365;-70
2024/04/18 01:18:48;;;;;;;23.80;16.52;;;;;;;;;;5379847;26;20059;-69
2024/04/18 01:21:14;;;;;;;22.65;16.52;;;;;;;;;;5381347;26;20015;-69
2024/04/18 01:23:40;;;;;;;24.65;17.10;;;;;;;;;;5377115;26;20000;-69
2024/04/18 01:26:10;;;;;;;21.52;15.68;;;;;;;;;;5376794;26;20089;-69
2024/04/18 01:28:36;;;;;;;21.35;15.32;;;;;;;;;;5379991;26;20434;-70
2024/04/18 01:31:02;;;;;;;23.23;15.80;;;;;;;;;;5381397;26;20012;-70
2024/04/18 01:33:28;;;;;;;24.73;15.55;;;;;;;;;;5381332;26;20004;-70
2024/04/18 01:35:54;;;;;;;18.27;13.55;;;;;;;;;;5381356;26;20012;-70
2024/04/18 01:38:20;;;;;;;19.77;14.18;;;;;;;;;;5381396;26;20052;-69
2024/04/18 01:40:46;;;;;;;22.40;14.55;;;;;;;;;;5381380;26;20008;-69
2024/04/18 01:43:12;;;;;;;19.50;14.27;;;;;;;;;;5380918;26;20439;-69
2024/04/18 01:45:38;;;;;;;22.10;14.15;;;;;;;;;;5381271;26;20105;-70
2024/04/18 01:48:04;;;;;;;19.98;13.23;;;;;;;;;;5380972;26;20004;-69
2024/04/18 01:50:30;;;;;;;19.83;13.70;;;;;;;;;;5380921;26;20012;-69
2024/04/18 01:52:56;;;;;;;20.42;14.10;;;;;;;;;;5378356;26;20000;-69
2024/04/18 01:55:22;;;;;;;18.95;13.82;;;;;;;;;;5380850;26;20004;-68
2024/04/18 01:57:48;;;;;;;20.27;13.27;;;;;;;;;;5380786;26;20000;-69
2024/04/18 02:00:14;;;;;;;17.42;12.80;;;;;;;;;;5380766;26;20012;-69
2024/04/18 02:02:40;;;;;;;20.05;13.38;;;;;;;;;;5380602;26;20506;-69
2024/04/18 02:05:06;;;;;;;16.85;11.82;;;;;;;;;;5380859;26;20016;-67
2024/04/18 02:07:32;;;;;;;16.02;11.05;;;;;;;;;;5380888;26;20000;-68
2024/04/18 02:09:58;;;;;;;17.52;12.23;;;;;;;;;;5380552;26;19997;-68
2024/04/18 02:12:24;;;;;;;17.65;12.93;;;;;;;;;;5379999;26;20466;-68
2024/04/18 02:14:50;;;;;;;19.10;12.55;;;;;;;;;;5380866;26;20062;-68
2024/04/18 02:17:16;;;;;;;15.20;11.60;;;;;;;;;;5366196;26;20004;-66
2024/04/18 02:19:42;;;;;;;17.50;12.38;;;;;;;;;;5380692;26;20007;-66
2024/04/18 02:22:08;;;;;;;14.98;11.38;;;;;;;;;;5379915;26;20044;-66
2024/04/18 02:24:38;;;;;;;16.17;11.38;;;;;;;;;;5369780;26;20004;-67
2024/04/18 02:27:04;;;;;;;14.35;10.52;;;;;;;;;;5380124;26;20008;-67
2024/04/18 02:29:30;;;;;;;14.80;10.70;;;;;;;;;;5380556;26;20012;-66
2024/04/18 02:31:56;;;;;;;16.50;10.68;;;;;;;;;;5380617;26;20364;-65
2024/04/18 02:34:22;;;;;;;14.93;9.70;;;;;;;;;;5380298;26;20004;-67
2024/04/18 02:36:48;;;;;;;14.13;9.73;;;;;;;;;;5380468;26;20001;-68
2024/04/18 02:39:14;;;;;;;14.05;9.95;;;;;;;;;;5378446;26;20048;-69
2024/04/18 02:41:40;;;;;;;13.05;9.27;;;;;;;;;;5370780;26;20079;-69
2024/04/18 02:44:06;;;;;;;14.75;9.35;;;;;;;;;;5361624;26;20001;-70
2024/04/18 02:46:32;;;;;;;12.02;9.02;;;;;;;;;;5380575;26;20024;-70
2024/04/18 02:48:58;;;;;;;14.02;9.38;;;;;;;;;;5380500;26;20113;-70
2024/04/18 02:51:24;;;;;;;12.52;9.07;;;;;;;;;;5378449;26;20008;-70
2024/04/18 02:53:50;;;;;;;12.65;9.32;;;;;;;;;;5379928;26;20002;-71
2024/04/18 02:56:16;;;;;;;11.50;8.52;;;;;;;;;;5380032;26;20418;-70
2024/04/18 02:58:45;;;;;;;13.55;8.50;;;;;;;;;;5380170;26;19996;-67
2024/04/18 03:01:11;;;;;;;13.63;9.02;;;;;;;;;;5379953;26;20008;-68
2024/04/18 03:03:37;;;;;;;11.25;8.30;;;;;;;;;;5379722;26;20073;-68
2024/04/18 03:06:04;;;;;;;11.15;7.53;;;;;;;;;;5376753;26;20079;-67
2024/04/18 03:08:30;;;;;;;12.07;8.07;;;;;;;;;;5380011;26;20015;-68
2024/04/18 03:10:56;;;;;;;23.92;8.23;;;;;;;;;;5379772;26;20000;-68
2024/04/18 03:13:22;;;;;;;12.50;7.93;;;;;;;;;;5379592;26;20016;-67
2024/04/18 03:15:48;;;;;;;9.65;6.80;;;;;;;;;;5380515;26;20037;-71
2024/04/18 03:18:14;;;;;;;10.98;6.95;;;;;;;;;;5381090;26;20015;-70
2024/04/18 03:20:40;;;;;;;11.40;7.47;;;;;;;;;;5379548;26;20000;-70
2024/04/18 03:23:07;;;;;;;9.48;6.97;;;;;;;;;;5379339;26;20016;-69
2024/04/18 03:25:33;;;;;;;10.93;6.97;;;;;;;;;;5370510;26;20033;-69
2024/04/18 03:27:59;;;;;;;12.50;7.05;;;;;;;;;;5379894;26;20004;-70
2024/04/18 03:30:25;;;;;;;8.95;6.30;;;;;;;;;;5379343;26;20482;-68
2024/04/18 03:32:51;;;;;;;12.35;7.55;;;;;;;;;;5379114;26;20012;-68
2024/04/18 03:35:17;;;;;;;9.02;6.45;;;;;;;;;;5379094;26;20045;-68
2024/04/18 03:37:43;;;;;;;13.85;6.68;;;;;;;;;;5379309;26;20000;-69
2024/04/18 03:40:09;;;;;;;9.43;6.47;;;;;;;;;;5379391;26;20004;-69
2024/04/18 03:42:35;;;;;;;10.30;5.90;;;;;;;;;;5379252;26;20016;-67
2024/04/18 03:45:01;;;;;;;11.55;6.00;;;;;;;;;;5379389;26;20011;-67
2024/04/18 03:47:27;;;;;;;9.95;5.75;;;;;;;;;;5379162;26;19996;-69
2024/04/18 03:49:53;;;;;;;15.25;6.30;;;;;;;;;;5379400;26;20346;-69
2024/04/18 03:52:19;;;;;;;18.77;6.10;;;;;;;;;;5378444;26;20012;-67
2024/04/18 03:54:45;;;;;;;8.65;5.60;;;;;;;;;;5378986;26;20004;-66
2024/04/18 03:57:11;;;;;;;7.32;5.13;;;;;;;;;;5378793;26;20016;-66
2024/04/18 03:59:37;;;;;;;11.32;5.97;;;;;;;;;;5379027;26;20479;-65
2024/04/18 04:02:03;;;;;;;10.50;5.32;;;;;;;;;;5378496;26;20024;-66
2024/04/18 04:04:29;;;;;;;9.45;4.55;;;;;;;;;;5379214;26;20004;-66
2024/04/18 04:06:55;;;;;;;10.50;5.47;;;;;;;;;;5378773;26;20036;-65
2024/04/18 04:09:21;;;;;;;7.70;5.45;;;;;;;;;;5378584;26;20472;-66
2024/04/18 04:11:47;;;;;;;9.18;5.05;;;;;;;;;;5377046;26;20015;-66
2024/04/18 04:14:13;;;;;;;8.45;5.47;;;;;;;;;;5376898;26;20008;-66
2024/04/18 04:16:39;;;;;;;6.70;5.13;;;;;;;;;;5380339;26;20518;-68
2024/04/18 04:19:05;;;;;;;8.90;4.82;;;;;;;;;;5382136;26;20018;-68
2024/04/18 04:21:32;;;;;;;7.65;5.00;;;;;;;;;;5380129;26;20013;-67
2024/04/18 04:23:58;;;;;;;7.15;4.40;;;;;;;;;;5373421;26;20016;-69
2024/04/18 04:26:24;;;;;;;7.35;4.65;;;;;;;;;;5381233;26;20036;-69
2024/04/18 04:28:51;;;;;;;7.57;4.47;;;;;;;;;;5382095;26;20074;-71
2024/04/18 04:31:17;;;;;;;7.53;4.75;;;;;;;;;;5381751;26;20010;-69
2024/04/18 04:33:43;;;;;;;6.68;4.70;;;;;;;;;;5381707;26;20008;-68
2024/04/18 04:36:09;;;;;;;9.75;4.63;;;;;;;;;;5381961;26;20015;-68
2024/04/18 04:38:38;;;;;;;12.23;5.40;;;;;;;;;;5381929;26;20000;-68
2024/04/18 04:41:04;;;;;;;11.63;5.43;;;;;;;;;;5381643;26;20495;-68
2024/04/18 04:43:30;;;;;;;6.70;4.90;;;;;;;;;;5381557;26;20008;-70
2024/04/18 04:45:56;;;;;;;6.63;5.18;;;;;;;;;;5381721;26;20000;-70
2024/04/18 04:48:22;;;;;;;6.45;4.75;;;;;;;;;;5381570;26;20159;-70
2024/04/18 04:50:57;;;;;;;6.45;4.72;;;;;;;;;;5381616;26;20016;-71
2024/04/18 04:53:23;;;;;;;9.25;5.45;;;;;;;;;;5381036;26;20008;-70
2024/04/18 04:55:49;;;;;;;6.75;5.30;;;;;;;;;;5379792;26;20004;-70
2024/04/18 04:58:15;;;;;;;5.13;4.32;;;;;;;;;;5381305;26;20036;-70
2024/04/18 05:00:41;;;;;;;6.32;4.57;;;;;;;;;;5381338;26;20000;-69
2024/04/18 05:03:07;;;;;;;7.60;5.35;;;;;;;;;;5363784;26;20037;-68
2024/04/18 05:05:33;;;;;;;6.18;4.47;;;;;;;;;;5381663;26;20000;-71
2024/04/18 05:07:59;;;;;;;6.68;5.10;;;;;;;;;;5381674;26;20371;-69
2024/04/18 05:10:25;;;;;;;7.30;4.80;;;;;;;;;;5381373;26;20036;-71
2024/04/18 05:12:51;;;;;;;9.93;4.63;;;;;;;;;;5381157;26;20774;-69
2024/04/18 05:15:17;;;;;;;7.13;5.15;;;;;;;;;;5381038;26;20029;-68
2024/04/18 05:17:43;;;;;;;10.82;5.35;;;;;;;;;;5362193;26;20471;-68
2024/04/18 05:20:10;;;;;;;6.93;4.82;;;;;;;;;;5361219;26;20473;-64
2024/04/18 05:22:36;;;;;;;21.50;8.00;;;;;;;;;;5379502;26;20020;-69
2024/04/18 05:25:02;;;;;;;14.35;7.78;;;;;;;;;;5381030;26;20014;-67
2024/04/18 05:27:28;;;;;;;9.45;7.60;;;;;;;;;;5367847;26;20000;-68
2024/04/18 05:32:38;;;;;;;11.10;7.30;;;;;;;;;;5380948;26;20011;-67
2024/04/18 05:35:04;;;;;;;14.57;6.88;;;;;;;;;;5376467;26;20004;-65
2024/04/18 05:37:30;;;;;;;12.57;6.78;;;;;;;;;;5380755;26;20004;-66
2024/04/18 05:39:56;;;;;;;5.68;4.70;;;;;;;;;;5380969;26;19996;-65
2024/04/18 05:42:22;;;;;;;6.82;4.80;;;;;;;;;;5380403;26;20001;-65
2024/04/18 05:44:48;;;;;;;8.48;4.53;;;;;;;;;;5380983;26;20074;-68
2024/04/18 05:47:14;;;;;;;11.02;4.68;;;;;;;;;;5380615;26;20004;-67
2024/04/18 05:49:40;;;;;;;11.13;4.80;;;;;;;;;;5380933;26;20012;-67
2024/04/18 05:52:06;;;;;;;8.98;4.03;;;;;;;;;;5377193;26;20012;-67
2024/04/18 05:54:32;;;;;;;11.95;4.32;;;;;;;;;;5380873;26;20464;-67
2024/04/18 05:56:58;;;;;;;11.65;3.58;;;;;;;;;;5380436;26;20015;-67
2024/04/18 05:59:24;;;;;;;13.02;4.10;;;;;;;;;;5380291;26;20000;-67
2024/04/18 06:01:50;;;;;;;10.45;3.88;;;;;;;;;;5379711;26;20015;-65
2024/04/18 06:04:16;;;;;;;11.73;4.22;;;;;;;;;;5364678;26;20515;-67
2024/04/18 06:06:42;;;;;;;7.57;3.75;;;;;;;;;;5378323;26;20746;-67
2024/04/18 06:09:08;;;;;;;8.40;4.10;;;;;;;;;;5374651;26;20007;-67
2024/04/18 06:11:41;;;;;;;6.18;3.38;;;;;;;;;;5379301;26;20549;-67
2024/04/18 06:14:08;;;;;;;8.30;4.15;;;;;;;;;;5379950;26;20000;-67
2024/04/18 06:16:34;;;;;;;16.05;9.93;;;;;;;;;;5378345;26;20032;-67
2024/04/18 06:19:00;;;;;;;37.03;27.27;;;;;;;;;;5380364;26;20352;-67
2024/04/18 06:21:26;;;;;;;72.68;51.90;;;;;;;;;;5379847;26;20015;-67
2024/04/18 06:23:52;;;;;;;104.72;74.40;;;;;;;;;;5367605;26;20330;-67
2024/04/18 06:26:18;;;;;;;63.67;44.45;;;;;;;;;;5345860;26;20017;-66
2024/04/18 06:28:45;;;;;;;41.40;30.92;;;;;;;;;;5345763;26;20475;-66
2024/04/18 06:31:11;;;;;;;27.60;19.10;;;;;;;;;;5345547;26;20534;-66
2024/04/18 06:33:37;;;;;;;26.60;18.67;;;;;;;;;;5345042;26;20081;-66
2024/04/18 06:36:03;;;;;;;27.10;18.63;;;;;;;;;;5345428;26;20353;-67
2024/04/18 06:38:29;;;;;;;20.83;14.63;;;;;;;;;;5345136;26;20005;-67
2024/04/18 06:40:55;;;;;;;15.75;10.93;;;;;;;;;;5345321;26;20015;-67
2024/04/18 06:43:21;;;;;;;17.58;11.90;;;;;;;;;;5345337;26;20005;-68
2024/04/18 06:45:47;;;;;;;22.23;13.93;;;;;;;;;;5347165;26;20017;-68
2024/04/18 06:48:13;;;;;;;26.95;18.35;;;;;;;;;;5350074;26;20001;-68
2024/04/18 06:50:40;;;;;;;25.92;19.70;;;;;;;;;;5347787;26;20430;-67
2024/04/18 06:53:06;;;;;;;26.02;18.98;;;;;;;;;;5353795;26;20349;-67
2024/04/18 06:55:34;;;;;;;24.33;17.52;;;;;;;;;;5359550;26;20005;-68
2024/04/18 06:58:00;;;;;;;27.85;17.05;;;;;;;;;;5354639;26;20005;-68
2024/04/18 07:00:27;;;;;;;22.13;16.52;;;;;;;;;;5346019;26;20073;-68
2024/04/18 07:02:53;;;;;;;21.77;14.23;;;;;;;;;;5345287;26;20004;-68
2024/04/18 07:05:19;;;;;;;21.50;14.32;;;;;;;;;;5345098;26;20427;-67
2024/04/18 07:07:45;;;;;;;19.70;14.05;;;;;;;;;;5343521;26;20005;-68
2024/04/18 07:10:11;;;;;;;18.27;13.05;;;;;;;;;;5345418;26;20017;-68
2024/04/18 07:12:37;;;;;;;20.85;13.65;;;;;;;;;;5344524;26;20419;-68
2024/04/18 07:15:03;;;;;;;20.77;14.23;;;;;;;;;;5344863;26;20009;-68
2024/04/18 07:17:29;;;;;;;22.75;15.50;;;;;;;;;;5345109;26;20075;-68
2024/04/18 07:19:55;;;;;;;21.23;15.27;;;;;;;;;;5345147;26;19997;-68
2024/04/18 07:22:21;;;;;;;24.40;15.60;;;;;;;;;;5345079;26;20019;-68
2024/04/18 07:24:49;;;;;;;24.40;15.93;;;;;;;;;;5345563;26;20016;-67
2024/04/18 07:27:15;;;;;;;20.92;15.13;;;;;;;;;;5378328;21;20315;-62
2024/04/18 07:29:41;;;;;;;22.10;15.02;;;;;;;;;;5415078;26;20006;-62
2024/04/18 07:32:07;;;;;;;20.20;14.45;;;;;;;;;;5412458;26;20007;-61
2024/04/18 07:34:33;;;;;;;20.50;13.65;;;;;;;;;;5415076;26;20458;-62
2024/04/18 07:36:59;;;;;;;21.10;13.80;;;;;;;;;;5414788;26;20000;-62
2024/04/18 07:39:26;;;;;;;20.67;13.93;;;;;;;;;;5414849;26;20523;-62
2024/04/18 07:41:52;;;;;;;18.80;13.75;;;;;;;;;;5414607;26;19999;-62
2024/04/18 07:44:18;;;;;;;17.80;12.02;;;;;;;;;;5415078;26;20359;-62
2024/04/18 07:46:44;;;;;;;17.55;13.00;;;;;;;;;;5414974;26;20024;-62
2024/04/18 07:49:10;;;;;;;17.17;12.25;;;;;;;;;;5414657;26;20455;-62
2024/04/18 07:51:37;;;;;;;15.60;10.68;;;;;;;;;;5413597;26;20010;-62
2024/04/18 07:54:03;;;;;;;15.75;11.40;;;;;;;;;;5414520;26;20006;-62
2024/04/18 07:56:29;;;;;;;16.02;11.52;;;;;;;;;;5414797;26;20028;-62
2024/04/18 07:58:55;;;;;;;15.45;10.95;;;;;;;;;;5414547;26;20339;-62
2024/04/18 08:01:21;;;;;;;16.50;10.70;;;;;;;;;;5414645;26;19996;-62
2024/04/18 08:03:47;;;;;;;15.02;10.60;;;;;;;;;;5414695;26;20000;-62
2024/04/18 08:06:13;;;;;;;13.73;10.48;;;;;;;;;;5414349;26;20002;-62
2024/04/18 08:08:39;;;;;;;15.93;9.68;;;;;;;;;;5414197;26;20421;-62
2024/04/18 08:11:08;;;;;;;14.95;9.68;;;;;;;;;;5414274;26;20333;-62
2024/04/18 08:13:35;;;;;;;14.10;10.30;;;;;;;;;;5414027;26;20010;-62
2024/04/18 08:16:02;;;;;;;14.20;10.30;;;;;;;;;;5414215;26;19999;-62
2024/04/18 08:18:28;;;;;;;11.77;8.70;;;;;;;;;;5413983;26;19999;-62
2024/04/18 08:20:56;;;;;;;12.38;8.93;;;;;;;;;;5414275;26;20006;-62
2024/04/18 08:23:22;;;;;;;13.75;9.15;;;;;;;;;;5413939;26;20007;-62
2024/04/18 08:25:48;;;;;;;14.90;9.75;;;;;;;;;;5414117;26;20043;-62
2024/04/18 08:28:16;;;;;;;12.00;8.65;;;;;;;;;;5412034;26;20000;-62
2024/04/18 08:30:42;;;;;;;11.75;8.23;;;;;;;;;;5414027;26;19992;-62
2024/04/18 08:33:08;;;;;;;11.68;8.25;;;;;;;;;;5414022;26;20068;-61
2024/04/18 08:35:34;;;;;;;10.43;8.00;;;;;;;;;;5413786;26;20359;-62
2024/04/18 08:38:00;;;;;;;11.27;7.60;;;;;;;;;;5411924;26;20006;-61
2024/04/18 08:40:26;;;;;;;10.30;7.43;;;;;;;;;;5413882;26;20006;-62
2024/04/18 08:42:53;;;;;;;13.13;8.20;;;;;;;;;;5413861;26;20032;-62
2024/04/18 08:45:23;;;;;;;11.90;7.90;;;;;;;;;;5413703;26;19991;-63
2024/04/18 08:47:50;;;;;;;10.65;8.23;;;;;;;;;;5413952;26;20000;-63
2024/04/18 08:50:17;;;;;;;9.25;6.95;;;;;;;;;;5413111;26;19996;-63
2024/04/18 08:52:46;;;;;;;10.48;6.72;;;;;;;;;;5412939;26;19995;-62
2024/04/18 08:55:12;;;;;;;9.75;6.63;;;;;;;;;;5413759;26;20004;-63
2024/04/18 08:57:52;;;;;;;9.65;6.50;;;;;;;;;;5413392;26;20003;-62
2024/04/18 09:00:18;;;;;;;9.48;6.25;;;;;;;;;;5413483;26;20076;-62
2024/04/18 09:02:45;;;;;;;8.80;6.72;;;;;;;;;;5415021;26;20395;-63
2024/04/18 09:05:11;;;;;;;9.25;6.55;;;;;;;;;;5417313;26;20011;-63
2024/04/18 09:07:37;;;;;;;11.02;6.38;;;;;;;;;;5417237;26;20459;-63
2024/04/18 09:10:07;;;;;;;8.50;5.95;;;;;;;;;;5417151;26;20014;-63
2024/04/18 09:12:36;;;;;;;8.63;6.15;;;;;;;;;;5416785;26;20031;-63
2024/04/18 09:15:03;;;;;;;7.50;5.38;;;;;;;;;;5417116;26;20015;-62
2024/04/18 09:17:29;;;;;;;7.22;5.13;;;;;;;;;;5416881;26;19999;-62
2024/04/18 09:19:55;;;;;;;7.40;5.53;;;;;;;;;;5417069;26;20464;-62
2024/04/18 09:22:21;;;;;;;6.78;5.55;;;;;;;;;;5416551;26;20022;-62
2024/04/18 09:24:48;;;;;;;8.32;5.38;;;;;;;;;;5417024;26;20069;-62
2024/04/18 09:27:14;;;;;;;7.65;5.10;;;;;;;;;;5417048;26;20043;-62
2024/04/18 09:29:40;;;;;;;7.70;5.65;;;;;;;;;;5417076;26;20010;-62
2024/04/18 09:32:07;;;;;;;6.68;5.05;;;;;;;;;;5417843;26;20077;-63
2024/04/18 09:34:35;;;;;;;7.78;5.40;;;;;;;;;;5418933;26;20015;-63
2024/04/18 09:37:05;;;;;;;6.70;4.60;;;;;;;;;;5417780;26;20000;-62
2024/04/18 09:39:32;;;;;;;6.07;4.57;;;;;;;;;;5419126;26;19999;-63
2024/04/18 09:42:06;;;;;;;6.35;5.00;;;;;;;;;;5417186;26;20000;-62
2024/04/18 09:44:33;;;;;;;7.38;4.55;;;;;;;;;;5416996;26;19999;-62
2024/04/18 09:47:00;;;;;;;5.68;4.43;;;;;;;;;;5416567;26;20081;-62
2024/04/18 09:49:27;;;;;;;6.57;4.78;;;;;;;;;;5414740;26;20014;-63
2024/04/18 09:51:54;;;;;;;7.60;4.85;;;;;;;;;;5416343;26;20014;-62
2024/04/18 09:54:20;;;;;;;7.13;4.72;;;;;;;;;;5416416;26;20532;-62
2024/04/18 09:56:46;;;;;;;7.65;4.22;;;;;;;;;;5416962;26;20375;-62
2024/04/18 09:59:13;;;;;;;5.30;4.07;;;;;;;;;;5414619;26;20018;-62
2024/04/18 10:01:41;;;;;;;4.88;4.13;;;;;;;;;;5416119;26;20014;-62
2024/04/18 10:04:07;;;;;;;5.90;4.25;;;;;;;;;;5416441;26;20343;-62
2024/04/18 10:06:36;;;;;;;6.32;4.18;;;;;;;;;;5416155;26;20015;-62
2024/04/18 10:09:02;;;;;;;5.93;4.15;;;;;;;;;;5416382;26;20076;-62
2024/04/18 10:11:28;;;;;;;4.97;4.00;;;;;;;;;;5416166;26;20347;-63
2024/04/18 10:13:59;;;;;;;5.18;3.90;;;;;;;;;;5415154;26;20420;-62
2024/04/18 10:16:25;;;;;;;5.05;3.45;;;;;;;;;;5416077;26;20015;-62
2024/04/18 10:18:51;;;;;;;5.03;3.65;;;;;;;;;;5416231;26;20072;-62
2024/04/18 10:21:25;;;;;;;4.50;3.28;;;;;;;;;;5415852;26;20011;-63
2024/04/18 10:23:52;;;;;;;5.07;3.53;;;;;;;;;;5415928;26;20410;-62
2024/04/18 10:26:19;;;;;;;5.00;3.60;;;;;;;;;;5416017;26;20004;-63
2024/04/18 10:28:46;;;;;;;3.85;2.97;;;;;;;;;;5415998;26;20015;-62
2024/04/18 10:31:12;;;;;;;4.55;3.42;;;;;;;;;;5415996;26;20010;-62
2024/04/18 10:33:42;;;;;;;3.97;3.30;;;;;;;;;;5415511;26;19999;-62
2024/04/18 10:36:17;;;;;;;4.32;3.42;;;;;;;;;;5416192;26;20035;-63
2024/04/18 10:38:44;;;;;;;4.70;3.35;;;;;;;;;;5415886;26;20478;-63
2024/04/18 10:41:13;;;;;;;4.35;2.65;;;;;;;;;;5416101;26;20364;-63
2024/04/18 10:43:40;;;;;;;4.20;3.00;;;;;;;;;;5415888;26;20214;-63
2024/04/18 10:46:07;;;;;;;4.45;3.10;;;;;;;;;;5415657;26;20003;-61
2024/04/18 10:48:36;;;;;;;4.05;3.00;;;;;;;;;;5415697;26;20011;-63
2024/04/18 10:51:03;;;;;;;4.20;2.88;;;;;;;;;;5415688;26;20014;-63
2024/04/18 10:53:33;;;;;;;4.22;3.00;;;;;;;;;;5415365;26;20014;-63
2024/04/18 10:55:59;;;;;;;3.85;3.15;;;;;;;;;;5415777;26;20359;-62
2024/04/18 10:58:25;;;;;;;4.07;2.85;;;;;;;;;;5415578;26;20053;-63
2024/04/18 11:00:58;;;;;;;2.95;2.65;;;;;;;;;;5415707;26;20026;-63
2024/04/18 11:03:24;;;;;;;3.33;2.85;;;;;;;;;;5415504;26;20003;-63
2024/04/18 11:05:50;;;;;;;3.92;2.90;;;;;;;;;;5415589;26;20013;-62
2024/04/18 11:08:16;;;;;;;3.15;2.67;;;;;;;;;;5415294;26;20461;-63
2024/04/18 11:10:42;;;;;;;3.42;2.40;;;;;;;;;;5415224;26;19999;-63
2024/04/18 11:13:09;;;;;;;2.97;2.45;;;;;;;;;;5415352;26;20000;-62
2024/04/18 11:15:36;;;;;;;3.05;2.25;;;;;;;;;;5415755;26;20003;-63
2024/04/18 11:18:05;;;;;;;3.63;2.47;;;;;;;;;;5413367;26;19996;-62
2024/04/18 11:20:31;;;;;;;3.50;2.45;;;;;;;;;;5415247;26;20010;-61
2024/04/18 11:22:57;;;;;;;2.20;2.00;;;;;;;;;;5415203;26;20330;-62
2024/04/18 11:25:24;;;;;;;2.78;2.15;;;;;;;;;;5413763;26;20000;-63
2024/04/18 11:27:50;;;;;;;3.28;2.38;;;;;;;;;;5414946;26;20003;-63
2024/04/18 11:30:18;;;;;;;2.92;2.35;;;;;;;;;;5415102;26;20000;-63
2024/04/18 11:32:52;;;;;;;2.75;2.13;;;;;;;;;;5414757;26;20014;-63
2024/04/18 11:35:19;;;;;;;3.15;2.30;;;;;;;;;;5415230;26;20010;-64
2024/04/18 11:37:45;;;;;;;3.22;2.20;;;;;;;;;;5415152;26;20053;-62
2024/04/18 11:40:11;;;;;;;4.45;3.10;;;;;;;;;;5415039;26;20000;-63
2024/04/18 11:42:38;;;;;;;2.63;2.03;;;;;;;;;;5414324;26;20032;-63
2024/04/18 11:45:04;;;;;;;2.85;2.10;;;;;;;;;;5414981;26;20003;-62
2024/04/18 11:47:30;;;;;;;2.40;2.15;;;;;;;;;;5414673;26;20147;-63
2024/04/18 11:49:56;;;;;;;3.25;2.40;;;;;;;;;;5415297;26;19996;-61
2024/04/18 11:52:22;;;;;;;3.05;2.28;;;;;;;;;;5414718;26;20047;-62
2024/04/18 11:54:48;;;;;;;3.17;2.33;;;;;;;;;;5414842;26;20370;-63
2024/04/18 11:57:14;;;;;;;2.35;1.83;;;;;;;;;;5414425;26;19999;-62
2024/04/18 11:59:43;;;;;;;2.95;2.28;;;;;;;;;;5413113;26;20009;-62
2024/04/18 12:02:09;;;;;;;2.15;1.80;;;;;;;;;;5414437;26;20348;-62
2024/04/18 12:04:35;;;;;;;2.67;1.67;;;;;;;;;;5415070;26;20465;-61
2024/04/18 12:07:01;;;;;;;2.03;1.58;;;;;;;;;;5417129;26;19995;-62
2024/04/18 12:09:27;;;;;;;3.47;1.92;;;;;;;;;;5418164;26;20011;-61
2024/04/18 12:11:53;;;;;;;2.67;1.70;;;;;;;;;;5417605;26;19996;-63
2024/04/18 12:14:19;;;;;;;2.42;1.90;;;;;;;;;;5418934;26;20006;-61
2024/04/18 12:16:45;;;;;;;1.85;1.70;;;;;;;;;;5416842;26;20000;-62
2024/04/18 12:19:11;;;;;;;2.63;1.95;;;;;;;;;;5416261;26;20007;-63
2024/04/18 12:21:37;;;;;;;2.83;1.90;;;;;;;;;;5414583;26;19995;-63
2024/04/18 12:24:04;;;;;;;1.67;1.50;;;;;;;;;;5414343;26;20000;-61
2024/04/18 12:26:30;;;;;;;2.80;1.92;;;;;;;;;;5392289;26;20069;-62
2024/04/18 12:28:56;;;;;;;1.75;1.55;;;;;;;;;;5377133;26;20012;-63
2024/04/18 12:31:22;;;;;;;2.22;1.77;;;;;;;;;;5378681;26;20363;-62
2024/04/18 12:33:48;;;;;;;2.35;1.60;;;;;;;;;;5378459;26;20751;-63
2024/04/18 12:36:16;;;;;;;2.42;1.70;;;;;;;;;;5378848;26;20000;-63
2024/04/18 12:38:44;;;;;;;1.70;1.38;;;;;;;;;;5382013;26;20004;-63
2024/04/18 12:41:10;;;;;;;1.38;1.27;;;;;;;;;;5382004;26;20015;-63
2024/04/18 12:43:39;;;;;;;1.80;1.55;;;;;;;;;;5381857;26;20012;-62
2024/04/18 12:46:05;;;;;;;1.70;1.45;;;;;;;;;;5381878;26;20081;-63
2024/04/18 12:48:31;;;;;;;1.92;1.60;;;;;;;;;;5381967;26;20000;-62
2024/04/18 12:50:57;;;;;;;1.25;1.02;;;;;;;;;;5381773;26;20004;-62
2024/04/18 12:53:25;;;;;;;1.55;1.35;;;;;;;;;;5381637;26;20005;-63
2024/04/18 12:55:51;;;;;;;1.88;1.38;;;;;;;;;;5381995;26;20004;-63
2024/04/18 12:58:17;;;;;;;1.75;1.38;;;;;;;;;;5381584;26;20004;-62
2024/04/18 13:00:44;;;;;;;2.55;1.70;;;;;;;;;;5381801;26;20451;-62
2024/04/18 13:03:10;;;;;;;1.20;1.10;;;;;;;;;;5381432;26;20000;-62
2024/04/18 13:05:36;;;;;;;1.38;1.15;;;;;;;;;;5381507;26;20447;-62
2024/04/18 13:08:02;;;;;;;1.23;1.10;;;;;;;;;;5381407;26;20004;-62
2024/04/18 13:10:28;;;;;;;1.52;1.27;;;;;;;;;;5381772;26;20364;-62
2024/04/18 13:12:54;;;;;;;1.95;1.27;;;;;;;;;;5381235;26;20286;-63
2024/04/18 13:15:20;;;;;;;1.80;1.27;;;;;;;;;;5381384;26;20058;-63
2024/04/18 13:17:46;;;;;;;1.48;1.38;;;;;;;;;;5381892;26;20024;-63
2024/04/18 13:20:12;;;;;;;2.08;1.30;;;;;;;;;;5381648;26;20019;-62
2024/04/18 13:22:38;;;;;;;1.40;1.08;;;;;;;;;;5381110;26;20012;-62
2024/04/18 13:25:05;;;;;;;1.50;1.10;;;;;;;;;;5381422;26;20437;-62
2024/04/18 13:27:31;;;;;;;0.95;0.93;;;;;;;;;;5381898;26;20483;-62
2024/04/18 13:29:57;;;;;;;2.88;1.10;;;;;;;;;;5381566;26;20000;-62
2024/04/18 13:32:23;;;;;;;9.45;1.73;;;;;;;;;;5380997;26;20011;-62
2024/04/18 13:34:53;;;;;;;4.18;1.20;;;;;;;;;;5381273;26;20004;-62
2024/04/18 13:37:19;;;;;;;7.88;1.42;;;;;;;;;;5384443;26;20011;-65
2024/04/18 13:39:50;;;;;;;5.05;1.50;;;;;;;;;;5400089;26;20023;-63
2024/04/18 13:42:16;;;;;;;13.02;2.80;;;;;;;;;;5415808;26;20039;-63
2024/04/18 13:44:42;;;;;;;6.47;1.75;;;;;;;;;;5416796;26;19999;-62
2024/04/18 13:47:08;;;;;;;7.60;2.15;;;;;;;;;;5416674;26;20003;-62
2024/04/18 13:49:33;;;;;;;3.65;1.83;;;;;;;;;;5415615;26;19999;-63
2024/04/18 13:52:00;;;;;;;5.60;1.48;;;;;;;;;;5414063;26;20014;-62
2024/04/18 13:54:26;;;;;;;5.18;1.70;;;;;;;;;;5415125;26;20015;-63
2024/04/18 13:56:52;;;;;;;6.93;2.08;;;;;;;;;;5403176;26;20044;-63
2024/04/18 13:59:18;;;;;;;6.10;2.30;;;;;;;;;;5415197;26;19999;-63
2024/04/18 14:01:44;;;;;;;8.02;2.15;;;;;;;;;;5407889;26;20004;-63
2024/04/18 14:04:10;;;;;;;8.02;1.55;;;;;;;;;;5380528;26;20012;-62
2024/04/18 14:06:36;;;;;;;11.18;2.40;;;;;;;;;;5403899;26;20000;-63
2024/04/18 14:09:04;;;;;;;6.50;2.45;;;;;;;;;;5416135;26;20019;-63
2024/04/18 14:11:30;;;;;;;6.72;1.77;;;;;;;;;;5415788;26;20007;-63
2024/04/18 14:13:56;;;;;;;5.70;1.98;;;;;;;;;;5415672;26;20006;-63
2024/04/18 14:19:07;;;;;;;5.82;1.88;;;;;;;;;;5416389;26;20424;-64
2024/04/18 14:21:33;;;;;;;3.70;1.52;;;;;;;;;;5413509;26;20035;-62
2024/04/18 14:23:59;;;;;;;4.00;1.52;;;;;;;;;;5415910;26;20463;-63
2024/04/18 14:26:26;;;;;;;5.68;1.70;;;;;;;;;;5415379;26;19995;-62
2024/04/18 14:28:52;;;;;;;3.60;1.25;;;;;;;;;;5415657;26;19999;-63
2024/04/18 14:31:18;;;;;;;2.30;1.35;;;;;;;;;;5415809;26;19995;-63
2024/04/18 14:33:44;;;;;;;5.50;2.05;;;;;;;;;;5412522;26;20015;-63